Eagleville, New York
Current Conditions -  °F | °C
As of 1:54 PM on Tuesday 21 Oct 2014 (Local Time) from KDDH Reporting Station
Overcast Overcast  
Wind Chill: 52°   Ceiling: 5500
Heat Index: 52°   Visibility: 10mi
Dew Point: 49°   Wind: 0mph
Humidity: 89%   Direction: NA
Pressure: 29.91"   Gusts: NA
Location:  43.1288°N, 73.306°W
Report Text: KDDH 211754Z AUTO 00000KT 10SM FEW043 OVC055 11/09 A2991 RMK AO2 RAE1656 SLP130 P0000 60010 T01110094 10111 20089 58006
Loading
Personal Weather Stations






























Interactive Weather Map
Tropical Storm Tracking
New forecast layout! Learn more

10-Day Weather Forecast

Advertisements
Track Severe Weather on mobile